Latest Weather Observations for Bendigo

IDV60801

Issued at 9:35 pm EST Friday 19 September 2014 (issued every 30 minutes, with the page automatically refreshed every 10 minutes)

About weather observations | Map of weather stations | Latest weather observations for VIC | Other Formats
Station Details ID: 081123 Name: BENDIGO AIRPORT Lat: -36.74 Lon: 144.33 Height: 208.0 m
Data from the previous 72 hours. | See also: Recent months at Bendigo
Date/Time
EST
Temp
°C
App
Temp
°C
Dew
Point
Rel
Hum
%
Delta-T
°C
Wind Press
QNH
hPa
Press
MSL
hPa
Rain
since 9 am
mm
Dir
 
Spd
km/h
Gust
km/h
Spd
kts
Gust
kts
19/09:30pm 5.2 3.6 2.6 83 1.1 S 0 0 0 0 1025.2 1025.4 0.0
19/09:00pm 6.7 4.8 3.1 78 1.5 W 2 6 1 3 1025.2 1025.4 0.0
19/08:30pm 7.0 4.2 2.9 75 1.7 S 7 9 4 5 1024.8 1025.0 0.0
19/08:00pm 10.1 7.5 4.0 66 2.7 S 7 11 4 6 1024.6 1024.8 0.0
19/07:30pm 9.9 7.5 4.3 68 2.5 SSW 6 9 3 5 1024.4 1024.6 0.0
19/07:00pm 10.2 7.5 3.7 64 2.9 SSW 7 11 4 6 1024.0 1024.2 0.0
19/06:30pm 11.8 8.8 4.1 59 3.5 SW 9 15 5 8 1023.7 1023.9 0.0
19/06:00pm 11.9 8.1 3.7 57 3.7 SW 13 17 7 9 1023.6 1023.8 0.0
19/05:30pm 13.2 9.7 3.3 51 4.5 SW 11 17 6 9 1023.4 1023.6 0.0
19/05:00pm 13.6 10.0 3.1 49 4.7 SSW 11 17 6 9 1023.1 1023.3 0.0
19/04:30pm 14.2 9.9 3.1 47 5.0 SSW 15 22 8 12 1023.0 1023.2 0.0
19/04:00pm 14.7 10.0 2.9 45 5.3 S 17 28 9 15 1022.9 1023.1 0.0
19/03:30pm 15.5 10.9 3.6 45 5.5 SSW 17 26 9 14 1022.8 1023.0 0.0
19/03:00pm 15.8 10.7 3.9 45 5.5 SW 20 32 11 17 1022.8 1023.0 0.0
19/02:30pm 14.8 8.8 3.3 46 5.3 S 24 28 13 15 1022.9 1023.1 0.0
19/02:00pm 16.1 11.7 2.9 41 6.0 SW 15 24 8 13 1023.0 1023.2 0.0
19/01:30pm 15.0 10.4 3.5 46 5.3 S 17 26 9 14 1023.3 1023.5 0.0
19/01:00pm 15.0 11.7 4.4 49 4.9 SW 11 20 6 11 1023.6 1023.8 0.0
19/12:30pm 14.3 9.7 3.5 48 4.9 SW 17 20 9 11 1023.9 1024.1 0.0
19/12:00pm 14.2 9.2 3.7 49 4.8 SW 19 28 10 15 1024.3 1024.5 0.0
19/11:30am 13.4 8.4 3.8 52 4.4 SSW 19 26 10 14 1024.6 1024.8 0.0
19/11:00am 13.1 8.3 4.5 56 4.0 S 19 30 10 16 1024.9 1025.1 0.0
19/10:30am 13.5 9.1 4.6 55 4.1 SSW 17 26 9 14 1025.1 1025.3 0.0
19/10:00am 12.1 8.3 4.1 58 3.6 SSW 13 26 7 14 1025.2 1025.4 0.0
19/09:30am 12.1 7.3 4.8 61 3.4 SW 19 26 10 14 1025.3 1025.5 0.0
19/09:00am 11.5 6.9 5.6 67 2.7 SW 19 28 10 15 1025.2 1025.4 0.0
19/08:30am 10.4 8.5 5.0 69 2.5 ENE 4 7 2 4 1025.1 1025.3 0.0
19/08:00am 7.7 6.4 4.3 79 1.5 CALM 0 0 0 0 1025.1 1025.3 0.0
19/07:30am 3.9 2.3 2.6 91 0.5 CALM 0 0 0 0 1024.9 1025.1 0.0
19/07:00am 0.3 -1.7 -0.4 95 0.3 CALM 0 4 0 2 1025.0 1025.2 0.0
19/06:30am -0.8 -2.9 -1.1 98 0.1 CALM 0 6 0 3 1024.8 1025.0 0.0
19/06:00am -1.2 -3.4 -1.8 96 0.2 CALM 0 4 0 2 1024.6 1024.8 0.0
19/05:30am -1.9 -4.2 -2.6 95 0.2 CALM 0 0 0 0 1024.3 1024.5 0.0
19/05:00am -1.5 -3.8 -2.2 95 0.2 CALM 0 0 0 0 1023.9 1024.1 0.0
19/04:30am -0.8 -3.0 -1.5 95 0.2 CALM 0 0 0 0 1023.6 1023.8 0.0
19/04:00am -1.0 -3.2 -1.7 95 0.2 CALM 0 0 0 0 1023.6 1023.8 0.0
19/03:30am -0.6 -2.8 -1.3 95 0.2 CALM 0 0 0 0 1023.5 1023.7 0.0
19/03:00am 0.2 -1.8 -0.4 96 0.2 CALM 0 0 0 0 1023.7 1023.9 0.0
19/02:30am 0.1 -2.0 -0.5 96 0.2 CALM 0 0 0 0 1024.0 1024.2 0.0
19/02:00am -0.6 -2.8 -1.4 94 0.3 CALM 0 0 0 0 1024.3 1024.5 0.0
19/01:30am -0.4 -2.6 -1.5 92 0.4 CALM 0 0 0 0 1024.5 1024.7 0.0
19/01:00am 0.1 -2.0 -1.0 92 0.4 CALM 0 0 0 0 1024.5 1024.7 0.0
19/12:30am 0.4 -1.8 -1.3 88 0.6 CALM 0 0 0 0 1024.6 1024.8 0.0
19/12:00am 1.9 -1.7 0.9 93 0.4 S 9 11 5 6 1024.5 1024.7 0.0
 
Date/Time
EST
Temp
°C
App
Temp
°C
Dew
Point
Rel
Hum
%
Delta-T
°C
Wind Press
QNH
hPa
Press
MSL
hPa
Rain
since 9 am
mm
Dir
 
Spd
km/h
Gust
km/h
Spd
kts
Gust
kts
18/11:30pm 1.7 -0.2 0.5 92 0.5 CALM 0 0 0 0 1024.7 1024.9 0.0
18/11:00pm 1.9 -0.1 -0.2 86 0.8 CALM 0 0 0 0 1024.9 1025.1 0.0
18/10:30pm 3.5 1.8 2.0 90 0.6 CALM 0 0 0 0 1025.0 1025.2 0.0
18/10:00pm 3.4 0.7 0.6 82 1.1 S 4 7 2 4 1025.0 1025.2 0.0
18/09:30pm 4.5 1.5 1.7 82 1.1 S 7 11 4 6 1024.8 1025.0 0.0
18/09:00pm 6.5 3.8 2.6 76 1.6 S 6 7 3 4 1024.7 1024.9 0.0
18/08:30pm 7.9 4.6 2.6 69 2.2 S 9 11 5 6 1024.2 1024.4 0.0
18/08:00pm 7.5 3.8 2.4 70 2.1 SSE 11 15 6 8 1024.1 1024.3 0.0
18/07:30pm 9.6 6.1 3.4 65 2.7 SSW 11 15 6 8 1023.8 1024.0 0.0
18/07:00pm 10.6 6.7 3.6 62 3.1 SW 13 17 7 9 1023.4 1023.6 0.0
18/06:30pm 10.9 7.1 3.7 61 3.2 SW 13 20 7 11 1023.2 1023.4 0.0
18/06:00pm 12.1 8.3 3.9 57 3.7 SW 13 19 7 10 1022.8 1023.0 0.0
18/05:30pm 12.7 8.1 3.6 54 4.1 SSW 17 22 9 12 1022.6 1022.8 0.0
18/05:00pm 13.2 8.5 3.0 50 4.6 SSW 17 24 9 13 1022.3 1022.4 0.0
18/04:30pm 13.2 7.9 1.8 46 5.0 SSW 19 30 10 16 1022.0 1022.1 0.0
18/04:00pm 13.3 9.0 3.4 51 4.5 SSW 15 22 8 12 1022.0 1022.1 0.0
18/03:30pm 14.1 9.1 4.4 52 4.5 SW 20 30 11 16 1022.0 1022.1 0.0
18/03:00pm 13.4 8.4 3.5 51 4.5 SW 19 26 10 14 1021.9 1022.0 0.0
18/02:30pm 13.4 8.2 2.3 47 4.9 SW 19 35 10 19 1021.9 1022.0 0.0
18/02:00pm 13.4 8.0 2.3 47 4.9 SW 20 26 11 14 1022.0 1022.1 0.0
18/01:30pm 13.8 9.2 3.6 50 4.7 SSW 17 28 9 15 1022.1 1022.2 0.0
18/01:00pm 12.9 7.4 1.9 47 4.8 SW 20 32 11 17 1022.3 1022.4 0.0
18/12:30pm 12.8 7.6 3.5 53 4.2 SW 20 32 11 17 1022.6 1022.8 0.0
18/12:00pm 13.1 8.6 4.0 54 4.2 SSW 17 26 9 14 1022.8 1023.0 0.0
18/11:30am 12.1 7.0 3.1 54 4.0 SW 19 28 10 15 1022.9 1023.1 0.0
18/11:00am 11.9 7.1 2.6 53 4.1 SSW 17 26 9 14 1023.1 1023.3 0.0
18/10:30am 11.4 5.9 4.2 61 3.3 WSW 22 33 12 18 1023.2 1023.4 0.0
18/10:00am 11.1 6.9 3.9 61 3.2 SSW 15 20 8 11 1023.3 1023.5 0.0
18/09:30am 9.9 4.8 3.9 66 2.7 SW 20 33 11 18 1023.2 1023.4 0.0
18/09:00am 9.6 4.6 4.8 72 2.2 SSW 20 30 11 16 1023.0 1023.2 0.0
18/08:30am 8.8 4.1 5.0 77 1.7 SW 19 28 10 15 1022.7 1022.9 0.0
18/08:00am 7.3 2.9 4.9 85 1.1 SW 17 22 9 12 1022.6 1022.8 0.0
18/07:30am 6.4 3.1 4.6 88 0.8 WSW 11 17 6 9 1022.7 1022.9 0.0
18/07:00am 5.5 2.1 4.2 91 0.6 W 11 13 6 7 1022.4 1022.6 0.0
18/06:30am 5.0 2.4 4.0 93 0.4 W 7 11 4 6 1022.1 1022.2 0.0
18/06:00am 4.6 2.1 3.7 94 0.4 NW 6 9 3 5 1021.9 1022.0 0.0
18/05:30am 4.6 3.2 3.4 92 0.5 CALM 0 0 0 0 1021.5 1021.7 0.0
18/05:17am 5.0 3.6 3.7 91 0.5 CALM 0 0 0 0 1021.2 1021.4 0.0
18/05:00am 4.7 2.6 3.7 93 0.4 NW 4 9 2 5 1021.1 1021.3 0.0
18/04:33am 5.3 3.9 3.8 90 0.6 CALM 0 0 0 0 1020.8 1021.0 0.0
18/04:30am 5.4 4.0 3.7 89 0.7 CALM 0 0 0 0 1020.8 1021.0 0.0
18/04:00am 6.1 2.3 4.1 87 0.9 W 13 19 7 10 1020.5 1020.7 0.0
18/03:30am 6.1 3.5 4.4 89 0.7 WSW 7 13 4 7 1020.6 1020.8 0.0
18/03:00am 5.3 3.5 3.5 88 0.8 SW 2 9 1 5 1020.3 1020.5 0.0
18/02:30am 5.9 2.8 3.7 86 0.9 WSW 9 13 5 7 1020.4 1020.6 0.0
18/02:00am 5.8 1.9 3.6 86 0.9 WSW 13 19 7 10 1020.5 1020.7 0.0
18/01:30am 5.7 1.8 3.2 84 1.1 WSW 13 19 7 10 1020.4 1020.6 0.0
18/01:00am 6.0 0.9 3.3 83 1.1 SW 19 26 10 14 1020.5 1020.7 0.0
18/12:30am 6.4 1.4 3.4 81 1.3 WSW 19 26 10 14 1020.7 1020.9 0.0
18/12:00am 6.9 1.7 3.5 79 1.5 WSW 20 28 11 15 1020.7 1020.9 0.0
 
Date/Time
EST
Temp
°C
App
Temp
°C
Dew
Point
Rel
Hum
%
Delta-T
°C
Wind Press
QNH
hPa
Press
MSL
hPa
Rain
since 9 am
mm
Dir
 
Spd
km/h
Gust
km/h
Spd
kts
Gust
kts
17/11:30pm 6.6 1.6 3.4 80 1.4 WSW 19 26 10 14 1020.8 1021.0 0.0
17/11:00pm 6.6 1.9 3.4 80 1.4 WSW 17 24 9 13 1020.7 1020.9 0.0
17/10:30pm 6.9 1.8 3.3 78 1.5 WSW 19 26 10 14 1020.4 1020.6 0.0
17/10:00pm 7.0 1.8 3.3 77 1.6 SW 20 30 11 16 1020.3 1020.5 0.0
17/09:30pm 7.3 2.6 3.2 75 1.8 WSW 17 26 9 14 1020.1 1020.3 0.0
17/09:00pm 7.6 2.5 2.9 72 2.0 SW 19 33 10 18 1019.8 1020.0 0.0
17/08:30pm 8.0 3.3 3.3 72 2.0 SSW 17 24 9 13 1019.8 1020.0 0.0
17/08:00pm 8.5 3.5 3.4 70 2.2 SSW 19 26 10 14 1019.5 1019.7 0.0
17/07:30pm 9.1 3.9 3.3 67 2.5 SW 20 32 11 17 1018.8 1019.0 0.0
17/07:00pm 9.2 4.7 4.0 70 2.3 SW 17 32 9 17 1018.6 1018.8 0.0
17/06:30pm 9.2 4.7 4.0 70 2.3 SW 17 26 9 14 1018.2 1018.3 0.0
17/06:00pm 9.8 4.4 4.6 70 2.3 SSW 22 32 12 17 1017.8 1017.9 0.0
17/05:30pm 10.6 4.7 5.6 71 2.3 SW 26 41 14 22 1017.5 1017.6 0.0
17/05:00pm 12.1 5.8 3.6 56 3.8 SSW 26 43 14 23 1016.5 1016.7 0.0
17/04:30pm 13.8 7.2 2.1 45 5.2 SW 26 39 14 21 1016.0 1016.2 0.0
17/04:00pm 14.6 7.3 -0.3 36 6.3 WSW 28 41 15 22 1015.7 1015.9 0.0
17/03:30pm 13.5 8.3 3.3 50 4.6 SSW 20 32 11 17 1015.4 1015.6 0.0
17/03:10pm 14.2 7.2 1.8 43 5.5 SW 28 46 15 25 1015.2 1015.4 0.0
17/03:00pm 14.2 8.9 5.0 54 4.3 SW 22 35 12 19 1015.3 1015.5 0.0
17/02:30pm 14.3 7.8 4.6 52 4.5 SW 28 39 15 21 1015.1 1015.3 0.0
17/02:00pm 14.4 6.0 1.7 42 5.6 W 35 54 19 29 1014.9 1015.1 0.0
17/01:42pm 16.0 9.4 4.4 46 5.5 WSW 28 46 15 25 1014.9 1015.1 0.0
17/01:30pm 15.2 8.6 4.0 47 5.2 WSW 28 41 15 22 1015.0 1015.2 0.0
17/01:00pm 13.5 7.1 5.4 58 3.8 SW 28 41 15 22 1015.1 1015.3 0.0
17/12:30pm 13.1 7.0 5.0 58 3.8 WSW 26 37 14 20 1015.2 1015.4 0.0
17/12:00pm 13.5 8.0 5.9 60 3.6 SW 24 35 13 19 1015.4 1015.6 0.0
17/11:30am 13.8 8.7 3.9 51 4.6 WSW 20 28 11 15 1015.2 1015.4 0.0
17/11:00am 12.6 6.4 4.3 57 3.8 WSW 26 32 14 17 1015.3 1015.5 0.0
17/10:30am 12.3 7.3 4.8 60 3.5 SW 20 30 11 16 1015.4 1015.6 0.0
17/10:00am 11.4 5.7 5.1 65 2.9 WSW 24 35 13 19 1015.4 1015.6 0.0
17/09:30am 11.0 5.0 5.1 67 2.7 WSW 26 41 14 22 1015.4 1015.6 0.0
17/09:00am 11.2 5.7 6.1 71 2.4 WSW 24 35 13 19 1015.3 1015.5 0.0
17/08:30am 9.8 6.5 6.2 78 1.7 W 13 17 7 9 1015.3 1015.5 0.0
17/08:00am 8.5 7.8 7.0 90 0.7 CALM 0 0 0 0 1015.1 1015.3 0.0
17/07:30am 6.8 5.9 6.2 96 0.3 CALM 0 2 0 1 1015.0 1015.2 0.0
17/07:00am 4.7 2.5 3.5 92 0.5 SW 4 7 2 4 1014.8 1015.0 0.0
17/06:30am 6.0 3.5 5.0 93 0.4 WSW 7 11 4 6 1014.5 1014.7 0.0
17/06:00am 6.4 3.7 5.4 93 0.4 WSW 9 13 5 7 1014.2 1014.3 0.0
17/05:30am 6.6 3.2 5.7 94 0.4 WSW 13 19 7 10 1014.2 1014.3 0.0
17/05:00am 4.8 2.4 4.2 96 0.3 W 6 9 3 5 1013.9 1014.0 0.0
17/04:30am 4.3 2.9 3.6 95 0.3 CALM 0 0 0 0 1013.8 1013.9 0.0
17/04:00am 5.7 4.6 5.0 95 0.3 CALM 0 0 0 0 1013.7 1013.8 0.0
17/03:30am 5.2 4.0 4.6 96 0.3 CALM 0 0 0 0 1013.7 1013.8 0.0
17/03:00am 4.2 2.8 3.8 97 0.2 CALM 0 0 0 0 1013.8 1013.9 0.0
17/02:30am 3.5 2.0 3.1 97 0.2 CALM 0 0 0 0 1013.8 1013.9 0.0
17/02:00am 3.0 1.4 2.4 96 0.2 CALM 0 0 0 0 1013.9 1014.0 0.0
17/01:30am 3.6 2.1 3.0 96 0.2 CALM 0 0 0 0 1013.9 1014.0 0.0
17/01:00am 3.4 1.7 2.1 91 0.5 CALM 0 0 0 0 1014.1 1014.2 0.0
17/12:30am 4.2 2.3 2.7 90 0.6 S 2 9 1 5 1013.9 1014.0 0.0
17/12:00am 4.3 2.4 3.1 92 0.5 SSW 2 7 1 4 1014.0 1014.1 0.0
 
Date/Time
EST
Temp
°C
App
Temp
°C
Dew
Point
Rel
Hum
%
Delta-T
°C
Wind Press
QNH
hPa
Press
MSL
hPa
Rain
since 9 am
mm
Dir
 
Spd
km/h
Gust
km/h
Spd
kts
Gust
kts
16/11:30pm 3.7 2.1 2.5 92 0.5 CALM 0 0 0 0 1014.1 1014.2 0.0
16/11:00pm 4.8 3.3 3.1 89 0.7 CALM 0 0 0 0 1014.1 1014.2 0.0
16/10:30pm 3.9 2.3 2.3 89 0.6 CALM 0 0 0 0 1014.2 1014.3 0.0
16/10:00pm 5.8 4.4 3.6 86 0.9 CALM 0 0 0 0 1014.2 1014.3 0.0

Other Formats:

Comma delimited format used in spreadsheet applications
http://www.bom.gov.au/fwo/IDV60801/IDV60801.94855.axf

JavaScript Object Notation format (JSON) in row-major order
http://www.bom.gov.au/fwo/IDV60801/IDV60801.94855.json